Time;durP1;ratioP1;P1;durP2;ratioP2;P2;SDS_P1;SDS_P2;PMS_P1;PMS_P2;Temp;Humidity;BMP_temperature;BMP_pressure;BME280_temperature;BME280_humidity;BME280_pressure;Samples;Min_cycle;Max_cycle;Signal;HPM_P1;HPM_P2
2023/10/09 00:01:46;;;;;;;3.10;2.50;;;11.70;99.90;;;;;;5015656;28;20269;-82
2023/10/09 00:04:13;;;;;;;3.03;2.50;;;11.80;99.90;;;;;;5016325;28;20195;-82
2023/10/09 00:06:41;;;;;;;3.93;2.70;;;11.80;99.90;;;;;;5016536;28;20170;-82
2023/10/09 00:09:30;;;;;;;3.90;2.80;;;11.80;99.90;;;;;;5034011;28;20648;-82
2023/10/09 00:11:57;;;;;;;3.50;2.80;;;11.80;99.90;;;;;;5033392;28;20162;-82
2023/10/09 00:14:30;;;;;;;3.23;2.20;;;11.80;99.90;;;;;;5034042;28;20232;-82
2023/10/09 00:17:03;;;;;;;3.80;2.50;;;11.80;99.90;;;;;;5033918;28;20166;-82
2023/10/09 00:19:32;;;;;;;3.67;2.40;;;11.70;99.90;;;;;;5016067;28;20205;-82
2023/10/09 00:21:58;;;;;;;3.57;2.60;;;11.70;99.90;;;;;;5033427;28;20174;-82
2023/10/09 00:24:24;;;;;;;3.50;2.60;;;11.70;99.90;;;;;;5016039;28;20225;-82
2023/10/09 00:27:02;;;;;;;3.37;2.30;;;11.70;99.90;;;;;;5033678;28;20194;-81
2023/10/09 00:29:32;;;;;;;4.63;2.80;;;11.70;99.90;;;;;;5015855;28;20202;-82
2023/10/09 00:32:13;;;;;;;3.37;2.60;;;11.70;99.90;;;;;;5015163;28;20169;-82
2023/10/09 00:34:42;;;;;;;3.27;2.50;;;11.70;99.90;;;;;;5033665;28;20174;-83
2023/10/09 00:37:16;;;;;;;3.73;2.60;;;11.70;99.90;;;;;;5033368;28;20262;-81
2023/10/09 00:39:48;;;;;;;5.10;2.80;;;11.70;99.90;;;;;;5033350;28;20186;-82
2023/10/09 00:42:15;;;;;;;3.03;2.50;;;11.60;99.90;;;;;;5032685;28;20184;-82
2023/10/09 00:44:44;;;;;;;5.50;3.00;;;11.70;99.90;;;;;;5033091;28;20178;-82
2023/10/09 00:47:21;;;;;;;7.67;3.40;;;11.60;99.90;;;;;;5015466;28;20651;-81
2023/10/09 00:50:01;;;;;;;4.63;3.27;;;11.70;99.90;;;;;;5015531;28;20204;-82
2023/10/09 00:52:43;;;;;;;6.03;3.60;;;11.70;99.90;;;;;;5032367;28;20200;-82
2023/10/09 00:55:14;;;;;;;5.50;3.67;;;11.70;99.90;;;;;;5102022;23;20748;-82
2023/10/09 00:57:50;;;;;;;6.30;3.67;;;11.70;99.90;;;;;;5053753;28;20192;-83
2023/10/09 01:01:16;;;;;;;4.77;3.53;;;11.70;99.90;;;;;;5053915;28;20250;-82
2023/10/09 01:05:52;;;;;;;8.83;3.73;;;11.80;99.90;;;;;;5053803;28;20298;-83
2023/10/09 01:08:43;;;;;;;7.60;4.17;;;11.80;99.90;;;;;;5052649;28;20173;-83
2023/10/09 01:11:18;;;;;;;5.27;3.83;;;11.80;99.90;;;;;;5051389;28;20229;-83
2023/10/09 01:16:34;;;;;;;4.70;3.57;;;11.80;99.90;;;;;;5053268;28;20180;-84
2023/10/09 01:19:00;;;;;;;4.83;3.67;;;11.80;99.90;;;;;;5051902;28;20260;-83
2023/10/09 01:21:26;;;;;;;5.00;3.60;;;11.80;99.90;;;;;;5052792;28;20698;-83
2023/10/09 01:26:25;;;;;;;5.00;3.03;;;11.90;99.90;;;;;;5053159;28;20181;-84
2023/10/09 01:28:50;;;;;;;4.97;3.53;;;11.80;99.90;;;;;;5052092;28;20635;-83
2023/10/09 01:31:16;;;;;;;6.43;3.73;;;11.80;99.90;;;;;;5052537;28;20200;-83
2023/10/09 01:33:41;;;;;;;4.27;3.20;;;11.60;99.90;;;;;;5051787;28;20677;-83
2023/10/09 01:36:09;;;;;;;5.17;3.60;;;11.60;99.90;;;;;;5052000;28;20552;-82
2023/10/09 01:38:41;;;;;;;3.50;2.90;;;11.60;99.90;;;;;;5053372;28;20253;-83
2023/10/09 01:41:34;;;;;;;4.00;2.97;;;11.50;99.90;;;;;;5051082;28;20649;-82
2023/10/09 01:44:00;;;;;;;3.73;3.10;;;11.50;99.90;;;;;;5052672;28;20201;-83
2023/10/09 01:46:26;;;;;;;4.43;3.40;;;11.40;99.90;;;;;;5051621;28;20177;-82
2023/10/09 01:48:53;;;;;;;5.00;3.10;;;11.50;99.90;;;;;;5051733;28;20189;-83
2023/10/09 01:51:20;;;;;;;5.40;3.50;;;11.40;99.90;;;;;;5051074;28;20174;-83
2023/10/09 01:53:53;;;;;;;5.53;3.77;;;11.50;99.90;;;;;;5052515;28;20576;-83
2023/10/09 01:56:19;;;;;;;5.60;3.60;;;11.50;99.90;;;;;;5052969;28;20170;-83
2023/10/09 01:58:47;;;;;;;6.90;3.80;;;11.50;99.90;;;;;;5053044;28;20253;-84
2023/10/09 02:01:14;;;;;;;5.00;3.50;;;11.40;99.90;;;;;;5050939;28;20170;-83
2023/10/09 02:03:42;;;;;;;4.53;3.10;;;11.40;99.90;;;;;;5051395;28;20200;-82
2023/10/09 02:06:25;;;;;;;4.33;3.50;;;11.30;99.90;;;;;;5052530;28;20185;-82
2023/10/09 02:08:53;;;;;;;5.63;3.60;;;11.20;99.90;;;;;;5051404;28;20579;-83
2023/10/09 02:11:35;;;;;;;5.37;3.63;;;11.10;99.90;;;;;;5050924;28;20596;-83
2023/10/09 02:14:05;;;;;;;6.17;4.13;;;11.10;99.90;;;;;;5051227;28;20192;-83
2023/10/09 02:16:41;;;;;;;5.63;3.87;;;11.10;99.90;;;;;;5051329;28;20176;-83
2023/10/09 02:19:08;;;;;;;7.07;4.10;;;11.10;99.90;;;;;;5051433;28;20177;-83
2023/10/09 02:21:39;;;;;;;7.40;4.07;;;11.20;99.90;;;;;;5051869;28;20169;-83
2023/10/09 02:24:07;;;;;;;7.57;4.80;;;11.30;99.90;;;;;;5056036;28;20200;-82
2023/10/09 02:29:15;;;;;;;6.93;4.57;;;11.40;99.90;;;;;;5056212;28;20250;-83
2023/10/09 02:31:44;;;;;;;7.50;4.50;;;11.40;99.90;;;;;;5055858;28;20186;-83
2023/10/09 02:34:10;;;;;;;8.63;4.67;;;11.50;99.90;;;;;;5056282;28;20197;-83
2023/10/09 02:36:43;;;;;;;8.43;5.00;;;11.60;99.90;;;;;;5056471;28;20181;-82
2023/10/09 02:39:43;;;;;;;9.57;4.90;;;11.70;99.90;;;;;;5055142;28;20249;-83
2023/10/09 02:42:01;;;;;;;9.00;5.47;;;11.80;99.90;;;;;;5055170;28;20178;-83
2023/10/09 02:44:39;;;;;;;8.47;6.07;;;11.90;99.90;;;;;;5055245;28;20682;-83
2023/10/09 02:47:07;;;;;;;11.13;6.40;;;11.90;99.90;;;;;;5056288;28;20197;-83
2023/10/09 02:49:34;;;;;;;10.80;5.87;;;12.10;99.90;;;;;;5056413;28;20220;-83
2023/10/09 02:52:05;;;;;;;11.53;6.97;;;12.20;99.90;;;;;;5054165;28;20193;-82
2023/10/09 02:54:35;;;;;;;12.97;7.53;;;12.30;99.90;;;;;;5056010;28;20788;-83
2023/10/09 02:57:07;;;;;;;13.20;7.93;;;12.40;99.90;;;;;;5056032;28;20170;-83
2023/10/09 02:59:34;;;;;;;13.70;8.27;;;12.70;99.90;;;;;;5054601;28;20654;-83
2023/10/09 03:02:00;;;;;;;14.40;7.77;;;12.70;99.90;;;;;;5055554;28;20185;-83
2023/10/09 03:04:30;;;;;;;15.13;8.57;;;12.80;99.90;;;;;;5054293;28;20207;-82
2023/10/09 03:07:00;;;;;;;17.07;8.27;;;12.90;99.90;;;;;;5054778;28;20261;-83
2023/10/09 03:09:34;;;;;;;14.73;9.07;;;13.00;99.90;;;;;;5054334;28;20292;-83
2023/10/09 03:12:02;;;;;;;14.03;8.67;;;13.10;99.90;;;;;;5055373;28;20207;-83
2023/10/09 03:14:31;;;;;;;14.60;9.20;;;13.20;99.90;;;;;;5055801;28;20276;-83
2023/10/09 03:16:58;;;;;;;14.63;9.13;;;13.30;99.90;;;;;;5055416;28;20180;-84
2023/10/09 03:19:28;;;;;;;18.50;9.03;;;13.40;99.90;;;;;;5056008;28;20174;-83
2023/10/09 03:21:54;;;;;;;17.37;9.40;;;13.40;99.90;;;;;;5053772;28;20197;-83
2023/10/09 03:24:22;;;;;;;14.73;9.07;;;13.40;99.90;;;;;;5055492;28;20239;-83
2023/10/09 03:26:49;;;;;;;14.70;9.27;;;13.30;99.90;;;;;;5055708;28;20178;-82
2023/10/09 03:29:15;;;;;;;15.83;9.00;;;13.30;99.90;;;;;;5055420;28;20193;-83
2023/10/09 03:31:43;;;;;;;13.90;9.00;;;13.30;99.90;;;;;;5053604;28;20178;-83
2023/10/09 03:34:10;;;;;;;14.23;8.93;;;13.20;99.90;;;;;;5054205;28;20194;-83
2023/10/09 03:36:38;;;;;;;14.63;9.63;;;13.20;99.90;;;;;;5053979;28;20177;-84
2023/10/09 03:41:58;;;;;;;15.97;9.67;;;13.10;99.90;;;;;;5054835;28;20181;-83
2023/10/09 03:44:28;;;;;;;15.87;10.20;;;13.10;99.90;;;;;;5053727;28;20197;-83
2023/10/09 03:46:55;;;;;;;14.87;9.80;;;13.10;99.90;;;;;;5055552;28;20682;-83
2023/10/09 03:49:23;;;;;;;16.43;9.80;;;13.00;99.90;;;;;;5053932;28;20194;-83
2023/10/09 03:51:49;;;;;;;17.57;9.80;;;13.00;99.90;;;;;;5055026;28;20181;-83
2023/10/09 03:54:15;;;;;;;16.83;9.40;;;13.00;99.90;;;;;;5054458;28;20607;-83
2023/10/09 03:56:41;;;;;;;17.23;9.73;;;12.90;99.90;;;;;;5055141;28;20653;-83
2023/10/09 03:59:10;;;;;;;15.93;10.03;;;12.90;99.90;;;;;;5054826;28;20181;-83
2023/10/09 04:01:39;;;;;;;13.37;9.83;;;12.90;99.90;;;;;;5054434;28;20177;-83
2023/10/09 04:04:13;;;;;;;15.47;9.37;;;12.90;99.90;;;;;;5055136;28;20205;-83
2023/10/09 04:06:39;;;;;;;16.03;9.50;;;12.90;99.90;;;;;;5053668;28;20582;-83
2023/10/09 04:11:49;;;;;;;15.03;10.00;;;12.90;99.90;;;;;;5054425;28;20211;-83
2023/10/09 04:14:25;;;;;;;13.37;9.17;;;12.90;99.90;;;;;;5054717;28;20234;-83
2023/10/09 04:16:51;;;;;;;14.30;8.63;;;12.90;99.90;;;;;;5054729;28;20173;-83
2023/10/09 04:19:21;;;;;;;13.53;8.80;;;13.00;99.90;;;;;;5054871;28;20170;-84
2023/10/09 04:21:48;;;;;;;14.73;9.40;;;13.00;99.90;;;;;;5054290;28;20191;-83
2023/10/09 04:26:46;;;;;;;13.17;8.67;;;13.00;99.90;;;;;;5054525;28;20197;-83
2023/10/09 04:29:26;;;;;;;13.50;8.73;;;13.00;99.90;;;;;;5053369;28;20206;-83
2023/10/09 04:31:56;;;;;;;13.57;8.00;;;13.00;99.90;;;;;;5053767;28;20157;-83
2023/10/09 04:34:23;;;;;;;11.23;7.60;;;13.10;99.90;;;;;;5052787;28;20194;-83
2023/10/09 04:37:04;;;;;;;11.53;7.80;;;13.10;99.90;;;;;;5054225;28;20654;-83
2023/10/09 04:47:35;;;;;;;11.87;7.70;;;13.20;99.90;;;;;;5049857;28;20735;-83
2023/10/09 05:03:07;;;;;;;12.10;7.63;;;13.30;99.90;;;;;;5053134;28;20176;-83
2023/10/09 05:16:08;;;;;;;14.97;7.83;;;13.50;99.90;;;;;;5053307;28;20259;-82
2023/10/09 05:18:37;;;;;;;14.23;7.37;;;13.50;99.90;;;;;;5051859;28;20174;-82
2023/10/09 05:24:15;;;;;;;12.53;6.80;;;13.50;99.90;;;;;;5053180;28;20205;-82
2023/10/09 05:37:32;;;;;;;13.83;7.60;;;13.50;99.90;;;;;;5052677;28;20215;-84
2023/10/09 05:42:42;;;;;;;12.23;8.40;;;13.50;99.90;;;;;;5052862;28;20178;-83
2023/10/09 05:47:53;;;;;;;;;;;;;;;;;;;;;
2023/10/09 06:24:33;;;;;;;11.70;7.80;;;13.80;99.90;;;;;;5052689;28;20255;-83
2023/10/09 06:34:46;;;;;;;14.40;7.80;;;13.90;99.90;;;;;;5052366;28;20612;-82
2023/10/09 06:45:08;;;;;;;12.40;7.07;;;13.90;99.90;;;;;;5052371;28;20201;-82
2023/10/09 06:47:41;;;;;;;12.07;7.20;;;14.00;99.90;;;;;;5051386;28;20178;-83
2023/10/09 06:56:01;;;;;;;9.87;6.40;;;14.00;99.90;;;;;;5087998;23;20264;-83
2023/10/09 06:58:26;;;;;;;10.87;6.37;;;14.00;99.90;;;;;;5015147;28;20167;-83
2023/10/09 07:03:51;;;;;;;11.00;5.60;;;14.10;99.90;;;;;;5032571;28;20209;-83
2023/10/09 07:06:24;;;;;;;10.03;6.00;;;14.20;99.90;;;;;;5032319;28;20190;-83
2023/10/09 07:09:15;;;;;;;10.00;5.97;;;14.20;99.90;;;;;;5033772;28;20173;-83
2023/10/09 07:17:15;;;;;;;9.97;6.00;;;14.30;99.90;;;;;;5026827;28;20539;-83
2023/10/09 07:22:29;;;;;;;10.27;5.87;;;14.30;99.90;;;;;;5029377;28;20254;-85
2023/10/09 07:27:43;;;;;;;9.20;5.47;;;14.40;99.90;;;;;;5035083;28;20183;-83
2023/10/09 07:30:35;;;;;;;8.30;5.57;;;14.30;99.90;;;;;;5027939;28;20201;-83
2023/10/09 07:38:28;;;;;;;10.50;5.03;;;14.40;99.90;;;;;;5034871;28;20253;-84
2023/10/09 07:43:39;;;;;;;9.20;5.37;;;14.40;99.90;;;;;;5034742;28;20178;-80
2023/10/09 07:50:11;;;;;;;7.57;4.73;;;14.40;99.90;;;;;;4973700;28;20206;-83
2023/10/09 07:52:44;;;;;;;10.83;5.67;;;14.50;99.90;;;;;;4973724;28;20149;-84
2023/10/09 07:58:47;;;;;;;8.23;4.73;;;14.70;99.90;;;;;;4992841;28;20182;-83
2023/10/09 08:01:16;;;;;;;9.10;5.57;;;14.80;99.90;;;;;;5016602;28;20182;-83
2023/10/09 08:03:45;;;;;;;11.07;5.03;;;14.90;99.90;;;;;;5034760;28;20179;-83
2023/10/09 08:16:51;;;;;;;7.60;4.97;;;14.90;99.90;;;;;;5034695;28;20653;-85
2023/10/09 08:19:32;;;;;;;9.87;4.93;;;14.80;99.90;;;;;;5016264;28;20565;-84
2023/10/09 08:22:42;;;;;;;8.77;5.30;;;14.80;99.90;;;;;;5015049;28;20174;-85
2023/10/09 08:25:03;;;;;;;8.37;4.43;;;14.80;99.90;;;;;;5034055;28;20579;-81
2023/10/09 08:33:39;;;;;;;7.30;4.87;;;14.80;99.90;;;;;;5033522;28;20173;-83
2023/10/09 08:35:51;;;;;;;6.73;4.47;;;14.80;99.90;;;;;;5033287;28;20168;-84
2023/10/09 08:38:26;;;;;;;7.93;4.23;;;14.90;99.90;;;;;;5033872;28;20167;-83
2023/10/09 08:40:58;;;;;;;10.43;5.10;;;14.90;99.90;;;;;;5015257;28;20190;-83
2023/10/09 08:43:23;;;;;;;8.57;4.80;;;14.90;99.90;;;;;;5033409;28;20253;-84
2023/10/09 08:46:03;;;;;;;8.07;5.10;;;14.90;99.90;;;;;;5033269;28;20700;-82
2023/10/09 08:48:29;;;;;;;8.73;4.70;;;14.90;99.90;;;;;;5033150;28;20170;-85
2023/10/09 08:50:55;;;;;;;8.47;5.00;;;15.00;99.90;;;;;;5015138;28;20209;-81
2023/10/09 08:53:27;;;;;;;11.20;5.13;;;15.00;99.90;;;;;;5015195;28;20171;-82
2023/10/09 08:55:53;;;;;;;9.87;5.07;;;15.00;99.90;;;;;;5015579;28;20209;-81
2023/10/09 08:58:30;;;;;;;8.87;4.93;;;15.10;99.90;;;;;;5032911;28;20548;-85
2023/10/09 09:00:58;;;;;;;9.27;4.90;;;15.10;99.90;;;;;;5014767;28;20178;-82
2023/10/09 09:03:24;;;;;;;7.27;4.57;;;15.10;99.90;;;;;;5032992;28;20643;-81
2023/10/09 09:06:04;;;;;;;7.13;4.77;;;15.10;99.90;;;;;;5015252;28;20194;-82
2023/10/09 09:08:36;;;;;;;8.50;4.67;;;15.10;99.90;;;;;;5013298;28;20214;-81
2023/10/09 09:11:12;;;;;;;7.67;4.97;;;15.10;99.90;;;;;;5014101;28;20200;-82
2023/10/09 09:13:42;;;;;;;9.20;4.67;;;15.10;99.90;;;;;;5014593;28;20174;-81
2023/10/09 09:16:17;;;;;;;9.43;4.80;;;15.20;99.90;;;;;;5025686;28;20232;-83
2023/10/09 09:19:42;;;;;;;9.33;4.27;;;15.20;99.90;;;;;;5032060;28;20212;-81
2023/10/09 09:21:44;;;;;;;8.07;4.83;;;15.20;99.90;;;;;;5020734;28;20179;-81
2023/10/09 09:26:46;;;;;;;8.63;4.77;;;15.20;99.90;;;;;;5030064;28;20185;-82
2023/10/09 09:29:18;;;;;;;8.23;4.33;;;15.30;99.90;;;;;;5018732;28;20221;-82
2023/10/09 09:32:06;;;;;;;7.43;4.93;;;15.30;99.90;;;;;;4993646;28;20233;-83
2023/10/09 09:34:48;;;;;;;7.27;5.03;;;15.30;99.90;;;;;;5030359;28;20190;-82
2023/10/09 09:37:20;;;;;;;8.03;4.70;;;15.30;99.90;;;;;;4995070;28;20198;-82
2023/10/09 09:39:52;;;;;;;8.43;4.97;;;15.40;99.90;;;;;;5012754;28;20175;-85
2023/10/09 09:42:24;;;;;;;7.63;4.43;;;15.50;99.90;;;;;;4994793;28;20258;-82
2023/10/09 09:44:51;;;;;;;6.13;4.50;;;15.50;99.90;;;;;;5013049;28;20201;-85
2023/10/09 09:47:29;;;;;;;7.20;4.17;;;15.50;99.90;;;;;;4994161;28;20175;-83
2023/10/09 09:49:59;;;;;;;8.03;4.40;;;15.60;99.90;;;;;;5013628;28;20205;-81
2023/10/09 09:52:40;;;;;;;7.37;4.60;;;15.60;99.90;;;;;;5013941;28;20170;-81
2023/10/09 09:55:22;;;;;;;7.37;4.50;;;15.60;99.90;;;;;;5032001;28;20297;-81
2023/10/09 09:57:51;;;;;;;7.43;4.40;;;15.50;99.90;;;;;;5032447;28;20245;-80
2023/10/09 10:03:12;;;;;;;5.63;4.07;;;15.50;99.90;;;;;;5032191;28;20177;-81
2023/10/09 10:05:40;;;;;;;7.03;4.87;;;15.50;99.90;;;;;;5013465;28;20198;-82
2023/10/09 10:08:12;;;;;;;7.00;4.37;;;15.50;99.90;;;;;;5031940;28;20178;-80
2023/10/09 10:10:47;;;;;;;7.33;4.30;;;15.50;99.90;;;;;;5032422;28;20205;-81
2023/10/09 10:13:27;;;;;;;9.73;5.00;;;15.60;99.90;;;;;;5014502;28;20174;-82
2023/10/09 10:16:00;;;;;;;7.37;4.70;;;15.60;99.90;;;;;;5031967;28;20174;-82
2023/10/09 10:18:32;;;;;;;9.00;4.60;;;15.60;99.90;;;;;;5014659;28;20170;-82
2023/10/09 10:22:11;;;;;;;7.03;4.73;;;15.60;99.90;;;;;;5030065;28;20185;-83
2023/10/09 10:24:28;;;;;;;7.70;4.40;;;15.50;99.90;;;;;;5014386;28;20290;-82
2023/10/09 10:27:58;;;;;;;8.57;5.20;;;15.50;99.90;;;;;;5014028;28;20175;-83
2023/10/09 10:30:13;;;;;;;5.73;4.03;;;15.50;99.90;;;;;;5027443;28;20205;-83
2023/10/09 10:33:09;;;;;;;7.60;4.33;;;15.60;99.90;;;;;;5031286;28;20197;-84
2023/10/09 10:35:45;;;;;;;9.03;4.70;;;15.60;99.90;;;;;;5031494;28;20666;-82
2023/10/09 10:38:42;;;;;;;5.90;4.50;;;15.60;99.90;;;;;;5031625;28;20170;-82
2023/10/09 10:41:19;;;;;;;8.23;4.40;;;15.60;99.90;;;;;;5031462;28;20170;-81
2023/10/09 10:49:01;;;;;;;7.03;4.63;;;15.70;99.90;;;;;;5035265;28;20181;-84
2023/10/09 10:51:40;;;;;;;7.10;4.97;;;15.70;99.90;;;;;;5033498;28;20256;-82
2023/10/09 10:56:53;;;;;;;8.53;4.80;;;15.70;99.90;;;;;;5035467;28;20173;-83
2023/10/09 10:59:26;;;;;;;8.43;5.00;;;15.60;99.90;;;;;;5017310;28;20171;-82
2023/10/09 11:04:44;;;;;;;6.73;4.70;;;15.70;99.90;;;;;;5034703;28;20189;-83
2023/10/09 11:07:11;;;;;;;;;;;;;;;;;;;;;
2023/10/09 11:12:42;;;;;;;8.03;4.30;;;15.80;99.90;;;;;;5034553;28;20205;-82
2023/10/09 11:15:18;;;;;;;7.93;4.57;;;15.80;99.90;;;;;;5034829;28;20190;-82
2023/10/09 11:17:45;;;;;;;8.47;4.30;;;15.80;99.90;;;;;;5033500;28;20174;-83
2023/10/09 11:20:23;;;;;;;7.63;4.53;;;15.80;99.90;;;;;;5034649;28;20183;-83
2023/10/09 11:25:35;;;;;;;6.53;4.23;;;15.80;99.90;;;;;;5034906;28;20201;-82
2023/10/09 11:28:27;;;;;;;8.10;4.60;;;15.80;99.90;;;;;;5034750;28;20174;-82
2023/10/09 11:30:46;;;;;;;7.77;4.40;;;15.80;99.90;;;;;;5033698;28;20201;-80
2023/10/09 11:33:15;;;;;;;9.63;4.43;;;15.80;99.90;;;;;;5033189;28;20174;-82
2023/10/09 11:35:43;;;;;;;6.87;4.03;;;15.80;99.90;;;;;;5016934;28;20186;-82
2023/10/09 11:38:22;;;;;;;7.33;4.17;;;15.80;99.90;;;;;;5034526;28;20182;-86
2023/10/09 11:41:06;;;;;;;6.70;4.57;;;15.90;99.90;;;;;;5033875;28;20272;-83
2023/10/09 11:43:51;;;;;;;9.63;4.27;;;16.00;99.90;;;;;;5033015;28;20178;-82
2023/10/09 11:52:34;;;;;;;9.37;4.17;;;16.20;99.90;;;;;;5033674;28;20181;-83
2023/10/09 11:54:35;;;;;;;7.63;4.17;;;16.20;99.90;;;;;;5033301;28;20210;-83
2023/10/09 11:57:01;;;;;;;9.33;4.50;;;16.20;99.90;;;;;;5033408;28;20179;-82
2023/10/09 11:59:37;;;;;;;7.70;4.70;;;16.30;99.90;;;;;;5015633;28;20175;-82
2023/10/09 12:02:11;;;;;;;9.60;4.30;;;16.40;99.90;;;;;;5033339;28;20177;-83
2023/10/09 12:04:41;;;;;;;8.10;4.20;;;16.40;99.90;;;;;;5016057;28;20620;-83
2023/10/09 12:07:08;;;;;;;9.90;4.60;;;16.40;99.90;;;;;;5016197;28;20182;-83
2023/10/09 12:09:34;;;;;;;8.47;4.33;;;16.50;99.90;;;;;;5033763;28;20252;-83
2023/10/09 12:12:02;;;;;;;6.67;4.10;;;16.50;99.90;;;;;;5015578;28;20171;-84
2023/10/09 12:14:33;;;;;;;6.33;4.30;;;16.50;99.90;;;;;;5015794;28;20190;-85
2023/10/09 12:17:05;;;;;;;9.00;4.60;;;16.50;99.90;;;;;;5016199;28;20166;-82
2023/10/09 12:19:38;;;;;;;7.20;4.13;;;16.50;99.90;;;;;;5016138;28;20179;-83
2023/10/09 12:22:06;;;;;;;7.43;4.30;;;16.50;99.90;;;;;;5033252;28;20174;-83
2023/10/09 12:24:33;;;;;;;7.20;4.27;;;16.60;99.90;;;;;;5015868;28;20228;-83
2023/10/09 12:27:00;;;;;;;6.73;4.03;;;16.60;99.90;;;;;;5033598;28;20643;-83
2023/10/09 12:29:30;;;;;;;7.20;4.30;;;16.60;99.90;;;;;;5015712;28;20202;-83
2023/10/09 12:31:59;;;;;;;8.97;4.33;;;16.60;99.90;;;;;;5033340;28;20166;-83
2023/10/09 12:34:27;;;;;;;11.27;4.50;;;16.60;99.90;;;;;;5015605;28;20279;-83
2023/10/09 12:37:01;;;;;;;8.77;4.73;;;16.60;99.90;;;;;;5015608;28;20178;-83
2023/10/09 12:39:33;;;;;;;7.70;4.47;;;16.60;99.90;;;;;;5033230;28;20165;-83
2023/10/09 12:42:08;;;;;;;8.90;4.80;;;16.50;99.90;;;;;;5014992;28;20186;-83
2023/10/09 12:44:38;;;;;;;7.03;4.87;;;16.50;99.90;;;;;;5015410;28;20197;-83
2023/10/09 12:47:11;;;;;;;7.67;4.20;;;16.50;99.90;;;;;;5033164;28;20614;-83
2023/10/09 12:49:40;;;;;;;7.17;4.63;;;16.50;99.90;;;;;;5015382;28;20678;-83
2023/10/09 12:52:15;;;;;;;8.30;4.97;;;16.50;99.90;;;;;;5014808;28;20261;-83
2023/10/09 12:54:41;;;;;;;7.53;4.47;;;16.50;99.90;;;;;;5015880;28;20209;-83
2023/10/09 12:57:13;;;;;;;8.87;4.37;;;16.50;99.90;;;;;;5015466;28;20232;-82
2023/10/09 12:59:45;;;;;;;6.83;4.20;;;16.50;99.90;;;;;;5033017;28;20194;-83
2023/10/09 13:02:43;;;;;;;6.97;4.40;;;16.50;99.90;;;;;;5032175;28;20201;-83
2023/10/09 13:05:05;;;;;;;8.03;4.63;;;16.50;99.90;;;;;;5032175;28;20214;-83
2023/10/09 13:07:30;;;;;;;8.17;4.07;;;16.50;99.90;;;;;;5032628;28;20177;-83
2023/10/09 13:10:08;;;;;;;10.47;5.10;;;16.50;99.90;;;;;;5032792;28;20198;-83
2023/10/09 13:12:40;;;;;;;8.80;4.27;;;16.50;99.90;;;;;;5014574;28;20170;-85
2023/10/09 13:15:09;;;;;;;11.80;4.87;;;16.50;99.90;;;;;;5032667;28;20191;-84
2023/10/09 13:17:38;;;;;;;6.90;4.13;;;16.40;99.90;;;;;;5015121;28;20179;-83
2023/10/09 13:20:14;;;;;;;6.97;4.10;;;16.40;99.90;;;;;;5032651;28;20301;-83
2023/10/09 13:22:46;;;;;;;5.83;3.87;;;16.50;99.90;;;;;;5014393;28;20178;-86
2023/10/09 13:25:16;;;;;;;7.80;4.43;;;16.50;99.90;;;;;;5032550;28;20198;-83
2023/10/09 13:27:45;;;;;;;7.83;4.70;;;16.50;99.90;;;;;;5032414;28;20190;-83
2023/10/09 13:30:21;;;;;;;9.03;4.63;;;16.50;99.90;;;;;;5014822;28;20237;-83
2023/10/09 13:32:49;;;;;;;5.87;4.30;;;16.50;99.90;;;;;;5014231;28;20205;-83
2023/10/09 13:35:16;;;;;;;8.80;4.80;;;16.50;99.90;;;;;;5032221;28;20651;-84
2023/10/09 13:37:44;;;;;;;7.93;4.77;;;16.50;99.90;;;;;;5032325;28;20669;-83
2023/10/09 13:40:11;;;;;;;7.50;4.70;;;16.50;99.90;;;;;;5032575;28;20221;-83
2023/10/09 13:42:37;;;;;;;8.80;4.77;;;16.50;99.90;;;;;;5014005;28;20174;-84
2023/10/09 13:45:15;;;;;;;7.70;4.63;;;16.50;99.90;;;;;;5032453;28;20194;-84
2023/10/09 13:47:44;;;;;;;9.87;4.83;;;16.50;99.90;;;;;;5032258;28;20170;-84
2023/10/09 13:50:10;;;;;;;8.77;4.90;;;16.50;99.90;;;;;;5032141;28;20190;-83
2023/10/09 13:52:39;;;;;;;8.97;4.70;;;16.50;99.90;;;;;;5031580;28;20170;-84
2023/10/09 13:55:15;;;;;;;6.83;4.80;;;16.50;99.90;;;;;;5014551;28;20626;-84
2023/10/09 13:57:45;;;;;;;6.20;4.40;;;16.50;99.90;;;;;;5033395;28;20174;-84
2023/10/09 14:00:19;;;;;;;8.47;4.80;;;16.50;99.90;;;;;;5032159;28;20564;-84
2023/10/09 14:02:46;;;;;;;6.77;4.20;;;16.50;99.90;;;;;;5031679;28;20182;-84
2023/10/09 14:05:12;;;;;;;8.47;4.50;;;16.60;99.90;;;;;;5014131;28;20200;-87
2023/10/09 14:07:37;;;;;;;7.30;5.07;;;16.60;99.90;;;;;;5014313;28;20175;-85
2023/10/09 14:10:17;;;;;;;9.47;4.60;;;16.50;99.90;;;;;;5032316;28;20556;-89
2023/10/09 14:12:44;;;;;;;7.07;4.60;;;16.50;99.90;;;;;;5031466;28;20220;-85
2023/10/09 14:15:17;;;;;;;6.97;4.10;;;16.50;99.90;;;;;;5031867;28;20194;-88
2023/10/09 14:17:42;;;;;;;6.13;4.23;;;16.50;99.90;;;;;;5014190;28;20261;-85
2023/10/09 14:20:30;;;;;;;8.40;4.57;;;16.60;99.90;;;;;;5035429;28;20253;-85
2023/10/09 14:22:56;;;;;;;8.53;4.47;;;16.60;99.90;;;;;;5035539;28;20183;-87
2023/10/09 14:25:21;;;;;;;6.17;4.10;;;16.60;99.90;;;;;;5018046;28;20195;-85
2023/10/09 14:27:52;;;;;;;8.87;4.67;;;16.60;99.90;;;;;;5017917;28;20174;-84
2023/10/09 14:30:30;;;;;;;8.80;4.20;;;16.60;99.90;;;;;;5035895;28;20256;-84
2023/10/09 14:32:57;;;;;;;7.60;4.50;;;16.60;99.90;;;;;;5018177;28;20190;-85
2023/10/09 14:35:26;;;;;;;6.13;3.90;;;16.50;99.90;;;;;;5018406;28;20201;-83
2023/10/09 14:37:53;;;;;;;7.10;4.57;;;16.50;99.90;;;;;;5035566;28;20158;-86
2023/10/09 14:40:29;;;;;;;9.20;4.67;;;16.50;99.90;;;;;;5035498;28;20170;-83
2023/10/09 14:42:57;;;;;;;8.93;4.30;;;16.50;99.90;;;;;;5017565;28;20178;-83
2023/10/09 14:45:25;;;;;;;7.03;4.23;;;16.40;99.90;;;;;;5036028;28;20209;-83
2023/10/09 14:47:53;;;;;;;7.70;4.30;;;16.40;99.90;;;;;;5018084;28;20729;-84
2023/10/09 14:50:22;;;;;;;7.10;4.20;;;16.40;99.90;;;;;;5017932;28;20248;-84
2023/10/09 14:52:50;;;;;;;8.50;4.60;;;16.40;99.90;;;;;;5035395;28;20170;-85
2023/10/09 14:55:20;;;;;;;7.23;4.13;;;16.40;99.90;;;;;;5017225;28;20206;-86
2023/10/09 14:57:49;;;;;;;6.80;4.50;;;16.40;99.90;;;;;;5035310;28;20205;-86
2023/10/09 15:00:15;;;;;;;8.37;4.47;;;16.40;99.90;;;;;;5017610;28;20563;-86
2023/10/09 15:02:41;;;;;;;7.97;4.67;;;16.40;99.90;;;;;;5017015;28;20181;-86
2023/10/09 15:05:11;;;;;;;6.90;4.20;;;16.40;99.90;;;;;;5035051;28;20194;-87
2023/10/09 15:07:40;;;;;;;6.87;4.10;;;16.40;99.90;;;;;;5017160;28;20205;-85
2023/10/09 15:10:09;;;;;;;7.37;3.90;;;16.40;99.90;;;;;;5034919;28;20202;-85
2023/10/09 15:12:39;;;;;;;8.00;4.50;;;16.40;99.90;;;;;;5016509;28;20174;-85
2023/10/09 15:15:13;;;;;;;7.40;4.43;;;16.40;99.90;;;;;;5017197;28;20197;-86
2023/10/09 15:17:43;;;;;;;7.97;4.43;;;16.40;99.90;;;;;;5017177;28;20171;-86
2023/10/09 15:20:13;;;;;;;7.43;4.60;;;16.40;99.90;;;;;;5017184;28;20305;-87
2023/10/09 15:22:41;;;;;;;11.20;4.10;;;16.30;99.90;;;;;;5034711;28;20182;-86
2023/10/09 15:25:06;;;;;;;9.30;4.47;;;16.30;99.90;;;;;;5034730;28;20190;-86
2023/10/09 15:27:32;;;;;;;8.67;4.90;;;16.30;99.90;;;;;;5016916;28;20184;-86
2023/10/09 15:29:58;;;;;;;8.20;4.97;;;16.30;99.90;;;;;;5016854;28;20190;-86
2023/10/09 15:32:24;;;;;;;9.80;5.07;;;16.20;99.90;;;;;;5016356;28;20198;-86
2023/10/09 15:34:56;;;;;;;8.60;4.63;;;16.20;99.90;;;;;;5034651;28;20190;-84
2023/10/09 15:37:22;;;;;;;7.13;4.47;;;16.20;99.90;;;;;;5034829;28;20201;-87
2023/10/09 15:39:49;;;;;;;8.87;5.00;;;16.20;99.90;;;;;;5034569;28;20261;-85
2023/10/09 15:42:16;;;;;;;11.00;5.30;;;16.20;99.90;;;;;;5033983;28;20198;-86
2023/10/09 15:44:42;;;;;;;7.33;4.40;;;16.20;99.90;;;;;;5034248;28;20658;-85
2023/10/09 15:47:12;;;;;;;8.27;4.70;;;16.20;99.90;;;;;;5016482;28;20177;-85
2023/10/09 15:49:41;;;;;;;8.40;4.53;;;16.20;99.90;;;;;;5034389;28;20213;-85
2023/10/09 15:52:08;;;;;;;8.27;4.33;;;16.20;99.90;;;;;;5015895;28;20174;-85
2023/10/09 15:54:34;;;;;;;8.53;4.90;;;16.10;99.90;;;;;;5016441;28;20214;-86
2023/10/09 15:57:00;;;;;;;7.07;4.10;;;16.10;99.90;;;;;;5034273;28;20167;-86
2023/10/09 15:59:25;;;;;;;7.83;4.30;;;16.10;99.90;;;;;;5016410;28;20209;-85
2023/10/09 16:01:51;;;;;;;6.57;4.47;;;16.00;99.90;;;;;;5033551;28;20174;-85
2023/10/09 16:04:17;;;;;;;7.57;4.13;;;16.00;99.90;;;;;;5017055;28;20195;-84
2023/10/09 16:06:43;;;;;;;7.00;4.27;;;16.00;99.90;;;;;;5034307;28;20175;-84
2023/10/09 16:09:11;;;;;;;6.93;3.97;;;15.90;99.90;;;;;;5016794;28;20175;-84
2023/10/09 16:11:40;;;;;;;8.63;4.10;;;15.90;99.90;;;;;;5033596;28;20166;-84
2023/10/09 16:14:09;;;;;;;7.83;3.87;;;15.90;99.90;;;;;;5033993;28;20569;-82
2023/10/09 16:16:42;;;;;;;7.77;4.37;;;15.90;99.90;;;;;;5034380;28;20179;-83
2023/10/09 16:19:11;;;;;;;6.87;4.37;;;15.80;99.90;;;;;;5016401;28;20265;-84
2023/10/09 16:21:40;;;;;;;8.10;4.83;;;15.80;99.90;;;;;;5015713;28;20174;-84
2023/10/09 16:24:09;;;;;;;6.50;4.40;;;15.80;99.90;;;;;;5033491;28;20194;-83
2023/10/09 16:26:51;;;;;;;6.77;4.33;;;15.70;99.90;;;;;;5033819;28;20165;-84
2023/10/09 16:29:17;;;;;;;8.50;4.23;;;15.70;99.90;;;;;;5015774;28;20600;-84